sensor_id;sensor_type;location;lat;lon;timestamp;temperature;humidity
18163;DHT22;9206;50.994;4.538;2024-01-11T00:01:35;-5.10;99.90
18163;DHT22;9206;50.994;4.538;2024-01-11T00:04:27;-5.20;99.90
18163;DHT22;9206;50.994;4.538;2024-01-11T00:07:18;-5.10;99.90
18163;DHT22;9206;50.994;4.538;2024-01-11T00:10:10;-5.20;99.90
18163;DHT22;9206;50.994;4.538;2024-01-11T00:13:02;-5.20;99.90
18163;DHT22;9206;50.994;4.538;2024-01-11T00:15:55;-5.20;99.90
18163;DHT22;9206;50.994;4.538;2024-01-11T00:18:47;-5.20;99.90
18163;DHT22;9206;50.994;4.538;2024-01-11T00:21:42;-5.30;99.90
18163;DHT22;9206;50.994;4.538;2024-01-11T00:24:30;-5.30;99.90
18163;DHT22;9206;50.994;4.538;2024-01-11T00:27:21;-5.30;99.90
18163;DHT22;9206;50.994;4.538;2024-01-11T00:30:28;-5.30;99.90
18163;DHT22;9206;50.994;4.538;2024-01-11T00:33:16;-5.30;99.90
18163;DHT22;9206;50.994;4.538;2024-01-11T00:36:04;-5.40;99.90
18163;DHT22;9206;50.994;4.538;2024-01-11T00:38:56;-5.50;99.90
18163;DHT22;9206;50.994;4.538;2024-01-11T00:41:46;-5.50;99.90
18163;DHT22;9206;50.994;4.538;2024-01-11T00:44:37;-5.40;99.90
18163;DHT22;9206;50.994;4.538;2024-01-11T00:47:26;-5.50;99.90
18163;DHT22;9206;50.994;4.538;2024-01-11T00:50:14;-5.50;99.90
18163;DHT22;9206;50.994;4.538;2024-01-11T00:53:02;-5.50;99.90
18163;DHT22;9206;50.994;4.538;2024-01-11T00:55:52;-5.50;99.90
18163;DHT22;9206;50.994;4.538;2024-01-11T00:58:41;-5.50;99.90
18163;DHT22;9206;50.994;4.538;2024-01-11T01:01:28;-5.50;99.90
18163;DHT22;9206;50.994;4.538;2024-01-11T01:04:16;-5.60;99.90
18163;DHT22;9206;50.994;4.538;2024-01-11T01:07:05;-5.60;99.90
18163;DHT22;9206;50.994;4.538;2024-01-11T01:09:56;-5.60;99.90
18163;DHT22;9206;50.994;4.538;2024-01-11T01:12:53;-5.60;99.90
18163;DHT22;9206;50.994;4.538;2024-01-11T01:15:46;-5.50;99.90
18163;DHT22;9206;50.994;4.538;2024-01-11T01:18:40;-5.50;99.90
18163;DHT22;9206;50.994;4.538;2024-01-11T01:21:29;-5.50;99.90
18163;DHT22;9206;50.994;4.538;2024-01-11T01:24:16;-5.50;99.90
18163;DHT22;9206;50.994;4.538;2024-01-11T01:27:04;-5.50;99.90
18163;DHT22;9206;50.994;4.538;2024-01-11T01:29:53;-5.40;99.90
18163;DHT22;9206;50.994;4.538;2024-01-11T01:32:44;-5.40;99.90
18163;DHT22;9206;50.994;4.538;2024-01-11T01:35:37;-5.40;99.90
18163;DHT22;9206;50.994;4.538;2024-01-11T01:38:28;-5.40;99.90
18163;DHT22;9206;50.994;4.538;2024-01-11T01:41:19;-5.40;99.90
18163;DHT22;9206;50.994;4.538;2024-01-11T01:44:25;-5.40;99.90
18163;DHT22;9206;50.994;4.538;2024-01-11T01:47:15;-5.50;99.90
18163;DHT22;9206;50.994;4.538;2024-01-11T01:50:05;-5.50;99.90
18163;DHT22;9206;50.994;4.538;2024-01-11T01:52:53;-5.50;99.90
18163;DHT22;9206;50.994;4.538;2024-01-11T01:55:51;-5.60;99.90
18163;DHT22;9206;50.994;4.538;2024-01-11T01:58:41;-5.60;99.90
18163;DHT22;9206;50.994;4.538;2024-01-11T02:01:32;-5.60;99.90
18163;DHT22;9206;50.994;4.538;2024-01-11T02:04:23;-5.70;99.90
18163;DHT22;9206;50.994;4.538;2024-01-11T02:07:14;-5.70;99.90
18163;DHT22;9206;50.994;4.538;2024-01-11T02:10:02;-5.70;99.90
18163;DHT22;9206;50.994;4.538;2024-01-11T02:12:50;-5.70;99.90
18163;DHT22;9206;50.994;4.538;2024-01-11T02:15:38;-5.80;99.90
18163;DHT22;9206;50.994;4.538;2024-01-11T02:18:28;-5.80;99.90
18163;DHT22;9206;50.994;4.538;2024-01-11T02:21:18;-5.80;99.90
18163;DHT22;9206;50.994;4.538;2024-01-11T02:24:13;-5.80;99.90
18163;DHT22;9206;50.994;4.538;2024-01-11T02:27:01;-5.90;99.90
18163;DHT22;9206;50.994;4.538;2024-01-11T02:29:49;-5.90;99.90
18163;DHT22;9206;50.994;4.538;2024-01-11T02:32:39;-5.90;99.90
18163;DHT22;9206;50.994;4.538;2024-01-11T02:35:31;-5.90;99.90
18163;DHT22;9206;50.994;4.538;2024-01-11T02:38:20;-5.90;99.90
18163;DHT22;9206;50.994;4.538;2024-01-11T02:41:08;-6.00;99.90
18163;DHT22;9206;50.994;4.538;2024-01-11T02:43:58;-6.00;99.90
18163;DHT22;9206;50.994;4.538;2024-01-11T02:46:49;-6.00;99.90
18163;DHT22;9206;50.994;4.538;2024-01-11T02:49:39;-6.10;99.90
18163;DHT22;9206;50.994;4.538;2024-01-11T02:52:29;-6.10;99.90
18163;DHT22;9206;50.994;4.538;2024-01-11T02:55:20;-6.10;99.90
18163;DHT22;9206;50.994;4.538;2024-01-11T02:58:08;-6.10;99.90
18163;DHT22;9206;50.994;4.538;2024-01-11T03:00:57;-6.20;99.90
18163;DHT22;9206;50.994;4.538;2024-01-11T03:03:46;-6.20;99.90
18163;DHT22;9206;50.994;4.538;2024-01-11T03:06:35;-6.20;99.90
18163;DHT22;9206;50.994;4.538;2024-01-11T03:09:23;-6.20;99.90
18163;DHT22;9206;50.994;4.538;2024-01-11T03:12:13;-6.30;99.90
18163;DHT22;9206;50.994;4.538;2024-01-11T03:15:05;-6.20;99.90
18163;DHT22;9206;50.994;4.538;2024-01-11T03:17:56;-6.30;99.90
18163;DHT22;9206;50.994;4.538;2024-01-11T03:20:46;-6.30;99.90
18163;DHT22;9206;50.994;4.538;2024-01-11T03:23:36;-6.30;99.90
18163;DHT22;9206;50.994;4.538;2024-01-11T03:26:24;-6.30;99.90
18163;DHT22;9206;50.994;4.538;2024-01-11T03:29:13;-6.30;99.90
18163;DHT22;9206;50.994;4.538;2024-01-11T03:32:03;-6.40;99.90
18163;DHT22;9206;50.994;4.538;2024-01-11T03:34:54;-6.40;99.90
18163;DHT22;9206;50.994;4.538;2024-01-11T03:37:48;-6.40;99.90
18163;DHT22;9206;50.994;4.538;2024-01-11T03:40:44;-6.40;99.90
18163;DHT22;9206;50.994;4.538;2024-01-11T03:43:32;-6.40;99.90
18163;DHT22;9206;50.994;4.538;2024-01-11T03:46:23;-6.40;99.90
18163;DHT22;9206;50.994;4.538;2024-01-11T03:49:16;-6.40;99.90
18163;DHT22;9206;50.994;4.538;2024-01-11T03:52:04;-6.40;99.90
18163;DHT22;9206;50.994;4.538;2024-01-11T03:55:01;-6.40;99.90
18163;DHT22;9206;50.994;4.538;2024-01-11T03:57:55;-6.50;99.90
18163;DHT22;9206;50.994;4.538;2024-01-11T04:01:02;-6.50;99.90
18163;DHT22;9206;50.994;4.538;2024-01-11T04:04:02;-6.50;99.90
18163;DHT22;9206;50.994;4.538;2024-01-11T04:06:55;-6.50;99.90
18163;DHT22;9206;50.994;4.538;2024-01-11T04:09:47;-6.50;99.90
18163;DHT22;9206;50.994;4.538;2024-01-11T04:12:44;-6.50;99.90
18163;DHT22;9206;50.994;4.538;2024-01-11T04:15:39;-6.50;99.90
18163;DHT22;9206;50.994;4.538;2024-01-11T04:18:36;-6.50;99.90
18163;DHT22;9206;50.994;4.538;2024-01-11T04:21:28;-6.50;99.90
18163;DHT22;9206;50.994;4.538;2024-01-11T04:24:35;-6.50;99.90
18163;DHT22;9206;50.994;4.538;2024-01-11T04:27:26;-6.50;99.90
18163;DHT22;9206;50.994;4.538;2024-01-11T04:30:17;-6.50;99.90
18163;DHT22;9206;50.994;4.538;2024-01-11T04:33:07;-6.50;99.90
18163;DHT22;9206;50.994;4.538;2024-01-11T04:35:55;-6.50;99.90
18163;DHT22;9206;50.994;4.538;2024-01-11T04:38:46;-6.50;99.90
18163;DHT22;9206;50.994;4.538;2024-01-11T04:41:48;-6.50;99.90
18163;DHT22;9206;50.994;4.538;2024-01-11T04:44:38;-6.60;99.90
18163;DHT22;9206;50.994;4.538;2024-01-11T04:47:27;-6.60;99.90
18163;DHT22;9206;50.994;4.538;2024-01-11T04:50:19;-6.50;99.90
18163;DHT22;9206;50.994;4.538;2024-01-11T04:53:11;-6.50;99.90
18163;DHT22;9206;50.994;4.538;2024-01-11T04:56:05;-6.50;99.90
18163;DHT22;9206;50.994;4.538;2024-01-11T04:58:59;-6.50;99.90
18163;DHT22;9206;50.994;4.538;2024-01-11T05:01:54;-6.50;99.90
18163;DHT22;9206;50.994;4.538;2024-01-11T05:04:45;-6.60;99.90
18163;DHT22;9206;50.994;4.538;2024-01-11T05:07:46;-6.60;99.90
18163;DHT22;9206;50.994;4.538;2024-01-11T05:10:39;-6.60;99.90
18163;DHT22;9206;50.994;4.538;2024-01-11T05:13:50;-6.60;99.90
18163;DHT22;9206;50.994;4.538;2024-01-11T05:16:43;-6.60;99.90
18163;DHT22;9206;50.994;4.538;2024-01-11T05:19:41;-6.60;99.90
18163;DHT22;9206;50.994;4.538;2024-01-11T05:22:39;-6.60;99.90
18163;DHT22;9206;50.994;4.538;2024-01-11T05:25:31;-6.60;99.90
18163;DHT22;9206;50.994;4.538;2024-01-11T05:28:27;-6.70;99.90
18163;DHT22;9206;50.994;4.538;2024-01-11T05:31:16;-6.70;99.90
18163;DHT22;9206;50.994;4.538;2024-01-11T05:34:10;-6.70;99.90
18163;DHT22;9206;50.994;4.538;2024-01-11T05:37:02;-6.70;99.90
18163;DHT22;9206;50.994;4.538;2024-01-11T05:40:06;-6.70;99.90
18163;DHT22;9206;50.994;4.538;2024-01-11T05:43:07;-6.70;99.90
18163;DHT22;9206;50.994;4.538;2024-01-11T05:45:58;-6.70;99.90
18163;DHT22;9206;50.994;4.538;2024-01-11T05:48:49;-6.70;99.90
18163;DHT22;9206;50.994;4.538;2024-01-11T05:51:58;-6.70;99.90
18163;DHT22;9206;50.994;4.538;2024-01-11T05:54:54;-6.70;99.90
18163;DHT22;9206;50.994;4.538;2024-01-11T05:57:54;-6.70;99.90
18163;DHT22;9206;50.994;4.538;2024-01-11T06:00:46;-6.70;99.90
18163;DHT22;9206;50.994;4.538;2024-01-11T06:03:45;-6.70;99.90
18163;DHT22;9206;50.994;4.538;2024-01-11T06:06:37;-6.70;99.90
18163;DHT22;9206;50.994;4.538;2024-01-11T06:09:32;-6.70;99.90
18163;DHT22;9206;50.994;4.538;2024-01-11T06:12:25;-6.70;99.90
18163;DHT22;9206;50.994;4.538;2024-01-11T06:15:17;-6.70;99.90
18163;DHT22;9206;50.994;4.538;2024-01-11T06:18:13;-6.70;99.90
18163;DHT22;9206;50.994;4.538;2024-01-11T06:21:06;-6.70;99.90
18163;DHT22;9206;50.994;4.538;2024-01-11T06:23:57;-6.70;99.90
18163;DHT22;9206;50.994;4.538;2024-01-11T06:30:17;-6.80;99.90
18163;DHT22;9206;50.994;4.538;2024-01-11T06:33:08;-6.80;99.90
18163;DHT22;9206;50.994;4.538;2024-01-11T06:36:07;-6.80;99.90
18163;DHT22;9206;50.994;4.538;2024-01-11T06:38:57;-6.90;99.90
18163;DHT22;9206;50.994;4.538;2024-01-11T06:42:08;-6.90;99.90
18163;DHT22;9206;50.994;4.538;2024-01-11T06:45:01;-7.00;99.90
18163;DHT22;9206;50.994;4.538;2024-01-11T06:47:58;-7.00;99.90
18163;DHT22;9206;50.994;4.538;2024-01-11T06:50:52;-7.00;99.90
18163;DHT22;9206;50.994;4.538;2024-01-11T06:53:45;-7.10;99.90
18163;DHT22;9206;50.994;4.538;2024-01-11T06:56:39;-7.10;99.90
18163;DHT22;9206;50.994;4.538;2024-01-11T06:59:45;-7.10;99.90
18163;DHT22;9206;50.994;4.538;2024-01-11T07:02:41;-7.10;99.90
18163;DHT22;9206;50.994;4.538;2024-01-11T07:05:41;-7.20;99.90
18163;DHT22;9206;50.994;4.538;2024-01-11T07:08:35;-7.20;99.90
18163;DHT22;9206;50.994;4.538;2024-01-11T07:11:30;-7.20;99.90
18163;DHT22;9206;50.994;4.538;2024-01-11T07:14:22;-7.20;99.90
18163;DHT22;9206;50.994;4.538;2024-01-11T07:17:18;-7.20;99.90
18163;DHT22;9206;50.994;4.538;2024-01-11T07:20:11;-7.30;99.90
18163;DHT22;9206;50.994;4.538;2024-01-11T07:22:58;-7.30;99.90
18163;DHT22;9206;50.994;4.538;2024-01-11T07:25:50;-7.30;99.90
18163;DHT22;9206;50.994;4.538;2024-01-11T07:28:40;-7.30;99.90
18163;DHT22;9206;50.994;4.538;2024-01-11T07:31:30;-7.40;99.90
18163;DHT22;9206;50.994;4.538;2024-01-11T07:34:30;-7.40;99.90
18163;DHT22;9206;50.994;4.538;2024-01-11T07:37:23;-7.40;99.90
18163;DHT22;9206;50.994;4.538;2024-01-11T07:40:15;-7.40;99.90
18163;DHT22;9206;50.994;4.538;2024-01-11T07:43:05;-7.40;99.90
18163;DHT22;9206;50.994;4.538;2024-01-11T07:45:54;-7.40;99.90
18163;DHT22;9206;50.994;4.538;2024-01-11T07:48:47;-7.40;99.90
18163;DHT22;9206;50.994;4.538;2024-01-11T07:51:50;-7.40;99.90
18163;DHT22;9206;50.994;4.538;2024-01-11T07:54:47;-7.30;99.90
18163;DHT22;9206;50.994;4.538;2024-01-11T07:57:36;-7.30;99.90
18163;DHT22;9206;50.994;4.538;2024-01-11T08:00:24;-7.30;99.90
18163;DHT22;9206;50.994;4.538;2024-01-11T08:03:14;-7.30;99.90
18163;DHT22;9206;50.994;4.538;2024-01-11T08:06:04;-7.30;99.90
18163;DHT22;9206;50.994;4.538;2024-01-11T08:08:57;-7.20;99.90
18163;DHT22;9206;50.994;4.538;2024-01-11T08:11:47;-7.20;99.90
18163;DHT22;9206;50.994;4.538;2024-01-11T08:14:37;-7.10;99.90
18163;DHT22;9206;50.994;4.538;2024-01-11T08:17:26;-7.00;99.90
18163;DHT22;9206;50.994;4.538;2024-01-11T08:20:16;-7.00;99.90
18163;DHT22;9206;50.994;4.538;2024-01-11T08:23:08;-7.00;99.90
18163;DHT22;9206;50.994;4.538;2024-01-11T08:25:56;-6.90;99.90
18163;DHT22;9206;50.994;4.538;2024-01-11T08:28:50;-6.90;99.90
18163;DHT22;9206;50.994;4.538;2024-01-11T08:31:37;-6.80;99.90
18163;DHT22;9206;50.994;4.538;2024-01-11T08:34:27;-6.70;99.90
18163;DHT22;9206;50.994;4.538;2024-01-11T08:37:17;-6.60;99.90
18163;DHT22;9206;50.994;4.538;2024-01-11T08:40:07;-6.50;99.90
18163;DHT22;9206;50.994;4.538;2024-01-11T08:43:01;-6.50;99.90
18163;DHT22;9206;50.994;4.538;2024-01-11T08:45:52;-6.30;99.90
18163;DHT22;9206;50.994;4.538;2024-01-11T08:48:42;-6.20;99.90
18163;DHT22;9206;50.994;4.538;2024-01-11T08:51:32;-6.00;99.90
18163;DHT22;9206;50.994;4.538;2024-01-11T08:54:19;-5.90;99.90
18163;DHT22;9206;50.994;4.538;2024-01-11T08:57:09;-5.80;99.90
18163;DHT22;9206;50.994;4.538;2024-01-11T09:00:07;-5.60;99.90
18163;DHT22;9206;50.994;4.538;2024-01-11T09:02:55;-5.50;99.90
18163;DHT22;9206;50.994;4.538;2024-01-11T09:05:46;-5.40;99.90
18163;DHT22;9206;50.994;4.538;2024-01-11T09:08:33;-5.30;99.90
18163;DHT22;9206;50.994;4.538;2024-01-11T09:11:31;-5.20;99.90
18163;DHT22;9206;50.994;4.538;2024-01-11T09:14:23;-5.10;99.90
18163;DHT22;9206;50.994;4.538;2024-01-11T09:17:12;-5.00;99.90
18163;DHT22;9206;50.994;4.538;2024-01-11T09:20:00;-4.80;99.90
18163;DHT22;9206;50.994;4.538;2024-01-11T09:22:49;-4.10;99.90
18163;DHT22;9206;50.994;4.538;2024-01-11T09:25:38;-2.60;99.90
18163;DHT22;9206;50.994;4.538;2024-01-11T09:28:26;-0.70;99.90
18163;DHT22;9206;50.994;4.538;2024-01-11T09:31:16;1.30;99.90
18163;DHT22;9206;50.994;4.538;2024-01-11T09:34:09;3.60;99.90
18163;DHT22;9206;50.994;4.538;2024-01-11T09:37:15;5.70;99.90
18163;DHT22;9206;50.994;4.538;2024-01-11T09:40:12;7.40;99.90
18163;DHT22;9206;50.994;4.538;2024-01-11T09:43:06;8.60;99.90
18163;DHT22;9206;50.994;4.538;2024-01-11T09:46:01;9.70;99.90
18163;DHT22;9206;50.994;4.538;2024-01-11T09:48:52;10.20;99.90
18163;DHT22;9206;50.994;4.538;2024-01-11T09:51:44;10.80;99.90
18163;DHT22;9206;50.994;4.538;2024-01-11T09:54:36;11.80;99.90
18163;DHT22;9206;50.994;4.538;2024-01-11T09:57:30;12.00;99.90
18163;DHT22;9206;50.994;4.538;2024-01-11T10:00:22;12.40;99.90
18163;DHT22;9206;50.994;4.538;2024-01-11T10:03:12;12.90;99.90
18163;DHT22;9206;50.994;4.538;2024-01-11T10:06:02;13.40;99.90
18163;DHT22;9206;50.994;4.538;2024-01-11T10:09:17;13.30;99.90
18163;DHT22;9206;50.994;4.538;2024-01-11T10:12:12;13.40;99.90
18163;DHT22;9206;50.994;4.538;2024-01-11T10:15:05;13.80;99.90
18163;DHT22;9206;50.994;4.538;2024-01-11T10:17:57;14.10;99.90
18163;DHT22;9206;50.994;4.538;2024-01-11T10:20:48;14.30;99.90
18163;DHT22;9206;50.994;4.538;2024-01-11T10:23:39;14.60;99.90
18163;DHT22;9206;50.994;4.538;2024-01-11T10:26:40;14.60;98.70
18163;DHT22;9206;50.994;4.538;2024-01-11T10:29:53;14.60;99.10
18163;DHT22;9206;50.994;4.538;2024-01-11T10:32:50;14.20;99.10
18163;DHT22;9206;50.994;4.538;2024-01-11T10:35:53;14.30;98.30
18163;DHT22;9206;50.994;4.538;2024-01-11T10:42:04;14.30;98.20
18163;DHT22;9206;50.994;4.538;2024-01-11T10:44:55;14.40;97.60
18163;DHT22;9206;50.994;4.538;2024-01-11T10:47:51;14.70;98.30
18163;DHT22;9206;50.994;4.538;2024-01-11T10:51:05;14.70;97.40
18163;DHT22;9206;50.994;4.538;2024-01-11T10:54:25;14.40;97.30
18163;DHT22;9206;50.994;4.538;2024-01-11T10:57:15;14.40;96.60
18163;DHT22;9206;50.994;4.538;2024-01-11T11:00:21;14.50;97.20
18163;DHT22;9206;50.994;4.538;2024-01-11T11:03:18;14.80;96.90
18163;DHT22;9206;50.994;4.538;2024-01-11T11:06:11;14.70;95.80
18163;DHT22;9206;50.994;4.538;2024-01-11T11:13:03;14.10;95.50
18163;DHT22;9206;50.994;4.538;2024-01-11T11:15:52;14.40;97.20
18163;DHT22;9206;50.994;4.538;2024-01-11T11:18:48;14.60;95.50
18163;DHT22;9206;50.994;4.538;2024-01-11T11:21:44;14.20;95.30
18163;DHT22;9206;50.994;4.538;2024-01-11T11:24:34;13.70;96.20
18163;DHT22;9206;50.994;4.538;2024-01-11T11:27:21;14.20;96.40
18163;DHT22;9206;50.994;4.538;2024-01-11T11:30:19;14.50;96.60
18163;DHT22;9206;50.994;4.538;2024-01-11T11:33:19;15.10;96.20
18163;DHT22;9206;50.994;4.538;2024-01-11T11:36:13;15.40;95.20
18163;DHT22;9206;50.994;4.538;2024-01-11T11:39:09;15.50;95.20
18163;DHT22;9206;50.994;4.538;2024-01-11T11:42:00;15.30;94.70
18163;DHT22;9206;50.994;4.538;2024-01-11T11:44:52;15.30;94.30
18163;DHT22;9206;50.994;4.538;2024-01-11T11:50:25;15.60;95.20
18163;DHT22;9206;50.994;4.538;2024-01-11T11:53:13;16.00;95.00
18163;DHT22;9206;50.994;4.538;2024-01-11T11:56:04;15.90;94.40
18163;DHT22;9206;50.994;4.538;2024-01-11T12:03:25;15.60;92.90
18163;DHT22;9206;50.994;4.538;2024-01-11T12:09:22;15.10;93.50
18163;DHT22;9206;50.994;4.538;2024-01-11T12:12:10;14.80;92.90
18163;DHT22;9206;50.994;4.538;2024-01-11T12:15:08;14.80;93.30
18163;DHT22;9206;50.994;4.538;2024-01-11T12:18:50;15.00;94.40
18163;DHT22;9206;50.994;4.538;2024-01-11T12:21:42;14.80;94.30
18163;DHT22;9206;50.994;4.538;2024-01-11T12:24:31;15.20;93.60
18163;DHT22;9206;50.994;4.538;2024-01-11T12:27:19;15.20;94.10
18163;DHT22;9206;50.994;4.538;2024-01-11T12:34:01;15.30;93.40
18163;DHT22;9206;50.994;4.538;2024-01-11T12:36:50;15.50;93.80
18163;DHT22;9206;50.994;4.538;2024-01-11T12:39:48;15.40;93.10
18163;DHT22;9206;50.994;4.538;2024-01-11T12:42:47;15.30;93.30
18163;DHT22;9206;50.994;4.538;2024-01-11T12:45:50;14.60;93.10
18163;DHT22;9206;50.994;4.538;2024-01-11T12:48:37;14.50;93.90
18163;DHT22;9206;50.994;4.538;2024-01-11T12:51:27;14.30;93.80
18163;DHT22;9206;50.994;4.538;2024-01-11T12:54:17;14.10;93.80
18163;DHT22;9206;50.994;4.538;2024-01-11T12:57:06;13.00;93.00
18163;DHT22;9206;50.994;4.538;2024-01-11T13:00:08;12.70;93.80
18163;DHT22;9206;50.994;4.538;2024-01-11T13:02:56;12.10;95.10
18163;DHT22;9206;50.994;4.538;2024-01-11T13:05:46;12.00;94.60
18163;DHT22;9206;50.994;4.538;2024-01-11T13:08:35;11.60;94.60
18163;DHT22;9206;50.994;4.538;2024-01-11T13:11:28;11.50;95.20
18163;DHT22;9206;50.994;4.538;2024-01-11T13:14:20;11.50;95.30
18163;DHT22;9206;50.994;4.538;2024-01-11T13:17:07;11.60;95.30
18163;DHT22;9206;50.994;4.538;2024-01-11T13:20:00;11.20;95.80
18163;DHT22;9206;50.994;4.538;2024-01-11T13:22:53;10.90;96.00
18163;DHT22;9206;50.994;4.538;2024-01-11T13:25:43;10.50;95.70
18163;DHT22;9206;50.994;4.538;2024-01-11T13:28:34;10.40;96.00
18163;DHT22;9206;50.994;4.538;2024-01-11T13:31:25;10.60;96.10
18163;DHT22;9206;50.994;4.538;2024-01-11T13:34:14;11.00;96.50
18163;DHT22;9206;50.994;4.538;2024-01-11T13:37:01;11.20;96.10
18163;DHT22;9206;50.994;4.538;2024-01-11T13:39:52;11.60;96.00
18163;DHT22;9206;50.994;4.538;2024-01-11T13:42:42;11.80;95.20
18163;DHT22;9206;50.994;4.538;2024-01-11T13:45:32;11.60;95.30
18163;DHT22;9206;50.994;4.538;2024-01-11T13:48:27;11.50;95.40
18163;DHT22;9206;50.994;4.538;2024-01-11T13:51:47;11.70;94.70
18163;DHT22;9206;50.994;4.538;2024-01-11T13:54:42;11.30;94.60
18163;DHT22;9206;50.994;4.538;2024-01-11T13:57:30;11.40;95.30
18163;DHT22;9206;50.994;4.538;2024-01-11T14:00:33;11.50;94.60
18163;DHT22;9206;50.994;4.538;2024-01-11T14:13:52;10.50;94.50
18163;DHT22;9206;50.994;4.538;2024-01-11T14:16:48;10.40;95.10
18163;DHT22;9206;50.994;4.538;2024-01-11T14:19:39;10.20;94.50
18163;DHT22;9206;50.994;4.538;2024-01-11T14:22:27;10.00;95.00
18163;DHT22;9206;50.994;4.538;2024-01-11T14:25:23;10.30;94.90
18163;DHT22;9206;50.994;4.538;2024-01-11T14:28:18;10.50;95.00
18163;DHT22;9206;50.994;4.538;2024-01-11T14:34:48;10.40;94.20
18163;DHT22;9206;50.994;4.538;2024-01-11T14:37:39;9.90;95.20
18163;DHT22;9206;50.994;4.538;2024-01-11T14:40:31;9.60;94.20
18163;DHT22;9206;50.994;4.538;2024-01-11T14:43:25;9.00;94.70
18163;DHT22;9206;50.994;4.538;2024-01-11T15:01:49;8.10;96.10
18163;DHT22;9206;50.994;4.538;2024-01-11T15:08:21;7.80;97.30
18163;DHT22;9206;50.994;4.538;2024-01-11T15:11:13;7.70;98.50
18163;DHT22;9206;50.994;4.538;2024-01-11T15:14:06;7.30;99.80
18163;DHT22;9206;50.994;4.538;2024-01-11T15:16:56;6.90;99.90
18163;DHT22;9206;50.994;4.538;2024-01-11T15:19:44;6.70;99.90
18163;DHT22;9206;50.994;4.538;2024-01-11T15:22:32;6.50;99.90
18163;DHT22;9206;50.994;4.538;2024-01-11T15:25:19;6.00;99.90
18163;DHT22;9206;50.994;4.538;2024-01-11T15:32:01;4.70;99.90
18163;DHT22;9206;50.994;4.538;2024-01-11T15:34:53;3.70;99.90
18163;DHT22;9206;50.994;4.538;2024-01-11T15:37:49;3.10;99.90
18163;DHT22;9206;50.994;4.538;2024-01-11T15:40:39;2.80;99.90
18163;DHT22;9206;50.994;4.538;2024-01-11T15:43:28;2.40;99.90
18163;DHT22;9206;50.994;4.538;2024-01-11T15:46:33;2.00;99.90
18163;DHT22;9206;50.994;4.538;2024-01-11T15:49:22;1.90;99.90
18163;DHT22;9206;50.994;4.538;2024-01-11T15:52:16;1.70;99.90
18163;DHT22;9206;50.994;4.538;2024-01-11T15:55:05;1.60;99.90
18163;DHT22;9206;50.994;4.538;2024-01-11T15:57:55;1.60;99.90
18163;DHT22;9206;50.994;4.538;2024-01-11T16:00:44;1.50;99.90
18163;DHT22;9206;50.994;4.538;2024-01-11T16:03:35;1.50;99.90
18163;DHT22;9206;50.994;4.538;2024-01-11T16:06:27;1.40;99.90
18163;DHT22;9206;50.994;4.538;2024-01-11T16:09:20;1.30;99.90
18163;DHT22;9206;50.994;4.538;2024-01-11T16:12:08;1.40;99.90
18163;DHT22;9206;50.994;4.538;2024-01-11T16:14:56;1.40;99.90
18163;DHT22;9206;50.994;4.538;2024-01-11T16:17:44;1.40;99.90
18163;DHT22;9206;50.994;4.538;2024-01-11T16:20:34;1.30;99.90
18163;DHT22;9206;50.994;4.538;2024-01-11T16:23:32;1.40;99.90
18163;DHT22;9206;50.994;4.538;2024-01-11T16:26:19;1.30;99.90
18163;DHT22;9206;50.994;4.538;2024-01-11T16:29:14;1.30;99.90
18163;DHT22;9206;50.994;4.538;2024-01-11T16:32:05;1.40;99.90
18163;DHT22;9206;50.994;4.538;2024-01-11T16:34:55;1.40;99.90
18163;DHT22;9206;50.994;4.538;2024-01-11T16:37:42;1.50;99.90
18163;DHT22;9206;50.994;4.538;2024-01-11T16:40:32;1.50;99.90
18163;DHT22;9206;50.994;4.538;2024-01-11T16:43:24;1.50;99.90
18163;DHT22;9206;50.994;4.538;2024-01-11T16:46:17;1.60;99.90
18163;DHT22;9206;50.994;4.538;2024-01-11T16:49:06;1.60;99.90
18163;DHT22;9206;50.994;4.538;2024-01-11T16:51:57;1.60;99.90
18163;DHT22;9206;50.994;4.538;2024-01-11T16:54:47;1.60;99.90
18163;DHT22;9206;50.994;4.538;2024-01-11T16:57:36;1.60;99.90
18163;DHT22;9206;50.994;4.538;2024-01-11T17:00:29;1.70;99.90
18163;DHT22;9206;50.994;4.538;2024-01-11T17:03:19;1.80;99.90
18163;DHT22;9206;50.994;4.538;2024-01-11T17:06:08;1.80;99.90
18163;DHT22;9206;50.994;4.538;2024-01-11T17:08:56;1.80;99.90
18163;DHT22;9206;50.994;4.538;2024-01-11T17:11:47;1.80;99.90
18163;DHT22;9206;50.994;4.538;2024-01-11T17:14:41;1.80;99.90
18163;DHT22;9206;50.994;4.538;2024-01-11T17:17:28;1.90;99.90
18163;DHT22;9206;50.994;4.538;2024-01-11T17:20:20;1.90;99.90
18163;DHT22;9206;50.994;4.538;2024-01-11T17:23:11;1.90;99.90
18163;DHT22;9206;50.994;4.538;2024-01-11T17:26:03;1.80;99.90
18163;DHT22;9206;50.994;4.538;2024-01-11T17:28:53;1.80;99.90
18163;DHT22;9206;50.994;4.538;2024-01-11T17:31:43;1.70;99.90
18163;DHT22;9206;50.994;4.538;2024-01-11T17:34:30;1.70;99.90
18163;DHT22;9206;50.994;4.538;2024-01-11T17:37:21;1.70;99.90
18163;DHT22;9206;50.994;4.538;2024-01-11T17:40:10;1.70;99.90
18163;DHT22;9206;50.994;4.538;2024-01-11T17:42:58;1.70;99.90
18163;DHT22;9206;50.994;4.538;2024-01-11T17:45:46;1.70;99.90
18163;DHT22;9206;50.994;4.538;2024-01-11T17:48:38;1.80;99.90
18163;DHT22;9206;50.994;4.538;2024-01-11T17:51:25;1.80;99.90
18163;DHT22;9206;50.994;4.538;2024-01-11T17:54:15;1.70;99.90
18163;DHT22;9206;50.994;4.538;2024-01-11T17:57:03;1.70;99.90
18163;DHT22;9206;50.994;4.538;2024-01-11T17:59:53;1.70;99.90
18163;DHT22;9206;50.994;4.538;2024-01-11T18:02:42;1.70;99.90
18163;DHT22;9206;50.994;4.538;2024-01-11T18:05:37;1.70;99.90
18163;DHT22;9206;50.994;4.538;2024-01-11T18:08:28;1.70;99.90
18163;DHT22;9206;50.994;4.538;2024-01-11T18:11:18;1.60;99.90
18163;DHT22;9206;50.994;4.538;2024-01-11T18:14:12;1.60;99.90
18163;DHT22;9206;50.994;4.538;2024-01-11T18:17:02;1.70;99.90
18163;DHT22;9206;50.994;4.538;2024-01-11T18:19:49;1.70;99.90
18163;DHT22;9206;50.994;4.538;2024-01-11T18:22:39;1.70;99.90
18163;DHT22;9206;50.994;4.538;2024-01-11T18:25:29;1.70;99.90
18163;DHT22;9206;50.994;4.538;2024-01-11T18:28:19;1.70;99.90
18163;DHT22;9206;50.994;4.538;2024-01-11T18:31:13;1.70;99.90
18163;DHT22;9206;50.994;4.538;2024-01-11T18:34:03;1.70;99.90
18163;DHT22;9206;50.994;4.538;2024-01-11T18:36:53;1.70;99.90
18163;DHT22;9206;50.994;4.538;2024-01-11T18:39:45;1.70;99.90
18163;DHT22;9206;50.994;4.538;2024-01-11T18:42:35;1.70;99.90
18163;DHT22;9206;50.994;4.538;2024-01-11T18:45:25;1.70;99.90
18163;DHT22;9206;50.994;4.538;2024-01-11T18:48:13;1.60;99.90
18163;DHT22;9206;50.994;4.538;2024-01-11T18:51:11;1.70;99.90
18163;DHT22;9206;50.994;4.538;2024-01-11T18:54:01;1.70;99.90
18163;DHT22;9206;50.994;4.538;2024-01-11T18:56:51;1.70;99.90
18163;DHT22;9206;50.994;4.538;2024-01-11T18:59:41;1.60;99.90
18163;DHT22;9206;50.994;4.538;2024-01-11T19:02:32;1.70;99.90
18163;DHT22;9206;50.994;4.538;2024-01-11T19:05:32;1.70;99.90
18163;DHT22;9206;50.994;4.538;2024-01-11T19:08:22;1.70;99.90
18163;DHT22;9206;50.994;4.538;2024-01-11T19:11:16;1.70;99.90
18163;DHT22;9206;50.994;4.538;2024-01-11T19:14:10;1.60;99.90
18163;DHT22;9206;50.994;4.538;2024-01-11T19:17:03;1.60;99.90
18163;DHT22;9206;50.994;4.538;2024-01-11T19:19:53;1.60;99.90
18163;DHT22;9206;50.994;4.538;2024-01-11T19:22:43;1.60;99.90
18163;DHT22;9206;50.994;4.538;2024-01-11T19:25:31;1.60;99.90
18163;DHT22;9206;50.994;4.538;2024-01-11T19:28:19;1.60;99.90
18163;DHT22;9206;50.994;4.538;2024-01-11T19:31:09;1.60;99.90
18163;DHT22;9206;50.994;4.538;2024-01-11T19:34:00;1.60;99.90